sensor_id;sensor_type;location;lat;lon;timestamp;P1;durP1;ratioP1;P2;durP2;ratioP2
46757;SDS011;32509;47.750;-3.396;2023-02-01T00:01:24;8.07;;;4.35;;
46757;SDS011;32509;47.750;-3.396;2023-02-01T00:03:50;9.18;;;4.05;;
46757;SDS011;32509;47.750;-3.396;2023-02-01T00:06:16;8.02;;;4.55;;
46757;SDS011;32509;47.750;-3.396;2023-02-01T00:08:42;20.85;;;5.22;;
46757;SDS011;32509;47.750;-3.396;2023-02-01T00:11:09;10.85;;;5.00;;
46757;SDS011;32509;47.750;-3.396;2023-02-01T00:13:36;6.18;;;3.05;;
46757;SDS011;32509;47.750;-3.396;2023-02-01T00:16:04;8.77;;;3.60;;
46757;SDS011;32509;47.750;-3.396;2023-02-01T00:18:30;6.57;;;3.70;;
46757;SDS011;32509;47.750;-3.396;2023-02-01T00:20:56;5.60;;;3.50;;
46757;SDS011;32509;47.750;-3.396;2023-02-01T00:23:23;10.73;;;3.72;;
46757;SDS011;32509;47.750;-3.396;2023-02-01T00:25:49;6.10;;;3.10;;
46757;SDS011;32509;47.750;-3.396;2023-02-01T00:28:15;9.48;;;3.38;;
46757;SDS011;32509;47.750;-3.396;2023-02-01T00:30:41;6.18;;;3.17;;
46757;SDS011;32509;47.750;-3.396;2023-02-01T00:33:07;7.80;;;3.15;;
46757;SDS011;32509;47.750;-3.396;2023-02-01T00:35:33;8.35;;;3.15;;
46757;SDS011;32509;47.750;-3.396;2023-02-01T00:37:59;14.23;;;3.28;;
46757;SDS011;32509;47.750;-3.396;2023-02-01T00:40:26;9.88;;;2.53;;
46757;SDS011;32509;47.750;-3.396;2023-02-01T00:42:52;15.95;;;4.53;;
46757;SDS011;32509;47.750;-3.396;2023-02-01T00:45:19;7.18;;;3.00;;
46757;SDS011;32509;47.750;-3.396;2023-02-01T00:47:45;8.52;;;3.20;;
46757;SDS011;32509;47.750;-3.396;2023-02-01T00:50:11;7.50;;;3.10;;
46757;SDS011;32509;47.750;-3.396;2023-02-01T00:52:37;6.68;;;2.88;;
46757;SDS011;32509;47.750;-3.396;2023-02-01T00:55:03;7.10;;;3.72;;
46757;SDS011;32509;47.750;-3.396;2023-02-01T00:57:30;12.35;;;4.18;;
46757;SDS011;32509;47.750;-3.396;2023-02-01T00:59:56;8.40;;;3.70;;
46757;SDS011;32509;47.750;-3.396;2023-02-01T01:02:22;6.35;;;3.42;;
46757;SDS011;32509;47.750;-3.396;2023-02-01T01:04:48;8.35;;;3.58;;
46757;SDS011;32509;47.750;-3.396;2023-02-01T01:07:14;13.27;;;3.47;;
46757;SDS011;32509;47.750;-3.396;2023-02-01T01:09:40;6.32;;;2.67;;
46757;SDS011;32509;47.750;-3.396;2023-02-01T01:12:06;9.63;;;4.00;;
46757;SDS011;32509;47.750;-3.396;2023-02-01T01:14:32;8.77;;;3.20;;
46757;SDS011;32509;47.750;-3.396;2023-02-01T01:16:58;8.90;;;3.47;;
46757;SDS011;32509;47.750;-3.396;2023-02-01T01:19:24;6.18;;;2.72;;
46757;SDS011;32509;47.750;-3.396;2023-02-01T01:21:51;9.55;;;3.55;;
46757;SDS011;32509;47.750;-3.396;2023-02-01T01:24:17;8.15;;;3.25;;
46757;SDS011;32509;47.750;-3.396;2023-02-01T01:26:43;8.38;;;3.83;;
46757;SDS011;32509;47.750;-3.396;2023-02-01T01:29:09;10.38;;;3.08;;
46757;SDS011;32509;47.750;-3.396;2023-02-01T01:31:36;13.10;;;4.32;;
46757;SDS011;32509;47.750;-3.396;2023-02-01T01:34:02;16.42;;;5.25;;
46757;SDS011;32509;47.750;-3.396;2023-02-01T01:36:28;10.38;;;3.67;;
46757;SDS011;32509;47.750;-3.396;2023-02-01T01:38:54;9.45;;;4.13;;
46757;SDS011;32509;47.750;-3.396;2023-02-01T01:41:22;8.13;;;3.53;;
46757;SDS011;32509;47.750;-3.396;2023-02-01T01:46:18;13.85;;;3.50;;
46757;SDS011;32509;47.750;-3.396;2023-02-01T01:48:45;10.65;;;3.92;;
46757;SDS011;32509;47.750;-3.396;2023-02-01T01:51:12;7.00;;;3.25;;
46757;SDS011;32509;47.750;-3.396;2023-02-01T01:56:32;11.18;;;3.25;;
46757;SDS011;32509;47.750;-3.396;2023-02-01T01:58:59;9.85;;;3.83;;
46757;SDS011;32509;47.750;-3.396;2023-02-01T02:01:25;8.13;;;3.35;;
46757;SDS011;32509;47.750;-3.396;2023-02-01T02:03:52;9.05;;;3.28;;
46757;SDS011;32509;47.750;-3.396;2023-02-01T02:08:44;10.65;;;3.65;;
46757;SDS011;32509;47.750;-3.396;2023-02-01T02:11:11;6.82;;;3.05;;
46757;SDS011;32509;47.750;-3.396;2023-02-01T02:13:38;9.23;;;3.38;;
46757;SDS011;32509;47.750;-3.396;2023-02-01T02:16:19;8.10;;;3.33;;
46757;SDS011;32509;47.750;-3.396;2023-02-01T02:34:40;13.95;;;3.47;;
46757;SDS011;32509;47.750;-3.396;2023-02-01T02:48:00;12.85;;;4.38;;
46757;SDS011;32509;47.750;-3.396;2023-02-01T02:53:47;16.52;;;3.95;;
46757;SDS011;32509;47.750;-3.396;2023-02-01T02:56:32;14.02;;;3.30;;
46757;SDS011;32509;47.750;-3.396;2023-02-01T02:59:19;11.82;;;3.42;;
46757;SDS011;32509;47.750;-3.396;2023-02-01T03:02:05;11.50;;;3.88;;
46757;SDS011;32509;47.750;-3.396;2023-02-01T03:04:53;9.63;;;3.75;;
46757;SDS011;32509;47.750;-3.396;2023-02-01T03:10:07;10.25;;;3.72;;
46757;SDS011;32509;47.750;-3.396;2023-02-01T03:12:36;15.15;;;3.70;;
46757;SDS011;32509;47.750;-3.396;2023-02-01T03:15:20;13.13;;;3.20;;
46757;SDS011;32509;47.750;-3.396;2023-02-01T03:17:47;12.57;;;4.78;;
46757;SDS011;32509;47.750;-3.396;2023-02-01T03:20:16;16.90;;;3.58;;
46757;SDS011;32509;47.750;-3.396;2023-02-01T03:22:44;17.27;;;4.82;;
46757;SDS011;32509;47.750;-3.396;2023-02-01T03:25:13;17.67;;;3.65;;
46757;SDS011;32509;47.750;-3.396;2023-02-01T03:28:02;15.35;;;4.80;;
46757;SDS011;32509;47.750;-3.396;2023-02-01T03:30:33;11.30;;;3.78;;
46757;SDS011;32509;47.750;-3.396;2023-02-01T03:37:56;15.63;;;3.50;;
46757;SDS011;32509;47.750;-3.396;2023-02-01T03:40:25;16.50;;;3.65;;
46757;SDS011;32509;47.750;-3.396;2023-02-01T03:42:52;14.95;;;4.75;;
46757;SDS011;32509;47.750;-3.396;2023-02-01T03:45:22;11.13;;;3.17;;
46757;SDS011;32509;47.750;-3.396;2023-02-01T03:47:51;15.95;;;3.80;;
46757;SDS011;32509;47.750;-3.396;2023-02-01T03:50:21;12.32;;;3.35;;
46757;SDS011;32509;47.750;-3.396;2023-02-01T03:52:54;12.50;;;4.20;;
46757;SDS011;32509;47.750;-3.396;2023-02-01T03:55:23;14.60;;;3.65;;
46757;SDS011;32509;47.750;-3.396;2023-02-01T04:00:25;13.35;;;3.33;;
46757;SDS011;32509;47.750;-3.396;2023-02-01T04:02:52;14.60;;;3.33;;
46757;SDS011;32509;47.750;-3.396;2023-02-01T04:05:19;15.68;;;4.22;;
46757;SDS011;32509;47.750;-3.396;2023-02-01T04:07:45;11.23;;;3.78;;
46757;SDS011;32509;47.750;-3.396;2023-02-01T04:10:11;14.35;;;4.35;;
46757;SDS011;32509;47.750;-3.396;2023-02-01T04:12:38;17.20;;;3.65;;
46757;SDS011;32509;47.750;-3.396;2023-02-01T04:15:04;16.15;;;3.70;;
46757;SDS011;32509;47.750;-3.396;2023-02-01T04:17:30;17.27;;;4.18;;
46757;SDS011;32509;47.750;-3.396;2023-02-01T04:19:56;14.15;;;4.32;;
46757;SDS011;32509;47.750;-3.396;2023-02-01T04:22:22;15.38;;;4.93;;
46757;SDS011;32509;47.750;-3.396;2023-02-01T04:24:49;16.25;;;3.95;;
46757;SDS011;32509;47.750;-3.396;2023-02-01T04:27:15;15.63;;;4.13;;
46757;SDS011;32509;47.750;-3.396;2023-02-01T04:29:41;17.67;;;4.90;;
46757;SDS011;32509;47.750;-3.396;2023-02-01T04:32:07;15.60;;;4.47;;
46757;SDS011;32509;47.750;-3.396;2023-02-01T04:34:33;22.05;;;4.28;;
46757;SDS011;32509;47.750;-3.396;2023-02-01T04:36:59;15.32;;;4.00;;
46757;SDS011;32509;47.750;-3.396;2023-02-01T04:39:26;20.38;;;4.43;;
46757;SDS011;32509;47.750;-3.396;2023-02-01T04:41:52;11.82;;;3.17;;
46757;SDS011;32509;47.750;-3.396;2023-02-01T04:44:18;19.98;;;4.07;;
46757;SDS011;32509;47.750;-3.396;2023-02-01T04:46:45;14.77;;;3.85;;
46757;SDS011;32509;47.750;-3.396;2023-02-01T04:49:11;16.17;;;3.83;;
46757;SDS011;32509;47.750;-3.396;2023-02-01T04:51:38;19.80;;;4.00;;
46757;SDS011;32509;47.750;-3.396;2023-02-01T04:54:04;22.42;;;4.57;;
46757;SDS011;32509;47.750;-3.396;2023-02-01T04:56:31;23.55;;;3.88;;
46757;SDS011;32509;47.750;-3.396;2023-02-01T04:58:57;20.27;;;4.60;;
46757;SDS011;32509;47.750;-3.396;2023-02-01T05:01:23;12.85;;;5.00;;
46757;SDS011;32509;47.750;-3.396;2023-02-01T05:03:49;20.33;;;4.65;;
46757;SDS011;32509;47.750;-3.396;2023-02-01T05:06:16;15.10;;;4.40;;
46757;SDS011;32509;47.750;-3.396;2023-02-01T05:08:42;14.05;;;4.63;;
46757;SDS011;32509;47.750;-3.396;2023-02-01T05:11:08;22.08;;;4.10;;
46757;SDS011;32509;47.750;-3.396;2023-02-01T05:13:57;13.85;;;3.42;;
46757;SDS011;32509;47.750;-3.396;2023-02-01T05:16:24;19.20;;;4.00;;
46757;SDS011;32509;47.750;-3.396;2023-02-01T05:18:50;15.65;;;3.85;;
46757;SDS011;32509;47.750;-3.396;2023-02-01T05:21:16;13.20;;;3.47;;
46757;SDS011;32509;47.750;-3.396;2023-02-01T05:23:42;14.48;;;4.03;;
46757;SDS011;32509;47.750;-3.396;2023-02-01T05:26:27;12.50;;;3.85;;
46757;SDS011;32509;47.750;-3.396;2023-02-01T05:28:53;26.55;;;5.50;;
46757;SDS011;32509;47.750;-3.396;2023-02-01T05:31:19;18.60;;;3.78;;
46757;SDS011;32509;47.750;-3.396;2023-02-01T05:33:46;16.30;;;4.85;;
46757;SDS011;32509;47.750;-3.396;2023-02-01T05:36:12;13.95;;;3.33;;
46757;SDS011;32509;47.750;-3.396;2023-02-01T05:38:38;17.55;;;4.40;;
46757;SDS011;32509;47.750;-3.396;2023-02-01T05:41:04;17.27;;;3.60;;
46757;SDS011;32509;47.750;-3.396;2023-02-01T05:43:30;12.95;;;3.58;;
46757;SDS011;32509;47.750;-3.396;2023-02-01T05:45:56;17.55;;;4.53;;
46757;SDS011;32509;47.750;-3.396;2023-02-01T05:48:22;15.88;;;5.38;;
46757;SDS011;32509;47.750;-3.396;2023-02-01T05:50:48;16.92;;;4.22;;
46757;SDS011;32509;47.750;-3.396;2023-02-01T05:53:14;14.02;;;4.50;;
46757;SDS011;32509;47.750;-3.396;2023-02-01T05:55:41;16.05;;;4.50;;
46757;SDS011;32509;47.750;-3.396;2023-02-01T05:58:07;15.82;;;3.40;;
46757;SDS011;32509;47.750;-3.396;2023-02-01T06:00:33;13.20;;;3.50;;
46757;SDS011;32509;47.750;-3.396;2023-02-01T06:02:59;16.20;;;3.55;;
46757;SDS011;32509;47.750;-3.396;2023-02-01T06:05:26;18.95;;;4.10;;
46757;SDS011;32509;47.750;-3.396;2023-02-01T06:07:52;15.93;;;3.33;;
46757;SDS011;32509;47.750;-3.396;2023-02-01T06:10:19;15.60;;;3.50;;
46757;SDS011;32509;47.750;-3.396;2023-02-01T06:12:45;14.23;;;4.55;;
46757;SDS011;32509;47.750;-3.396;2023-02-01T06:15:12;12.00;;;3.15;;
46757;SDS011;32509;47.750;-3.396;2023-02-01T06:17:40;13.05;;;3.72;;
46757;SDS011;32509;47.750;-3.396;2023-02-01T06:20:08;17.63;;;3.53;;
46757;SDS011;32509;47.750;-3.396;2023-02-01T06:22:34;16.80;;;3.67;;
46757;SDS011;32509;47.750;-3.396;2023-02-01T06:25:01;10.70;;;3.60;;
46757;SDS011;32509;47.750;-3.396;2023-02-01T06:27:27;16.08;;;3.83;;
46757;SDS011;32509;47.750;-3.396;2023-02-01T06:29:54;8.05;;;3.67;;
46757;SDS011;32509;47.750;-3.396;2023-02-01T06:32:21;14.93;;;3.83;;
46757;SDS011;32509;47.750;-3.396;2023-02-01T06:34:48;18.63;;;3.72;;
46757;SDS011;32509;47.750;-3.396;2023-02-01T06:37:14;12.07;;;3.17;;
46757;SDS011;32509;47.750;-3.396;2023-02-01T06:39:40;9.35;;;3.45;;
46757;SDS011;32509;47.750;-3.396;2023-02-01T06:42:06;23.02;;;5.10;;
46757;SDS011;32509;47.750;-3.396;2023-02-01T06:44:32;15.90;;;6.32;;
46757;SDS011;32509;47.750;-3.396;2023-02-01T06:46:58;17.80;;;5.95;;
46757;SDS011;32509;47.750;-3.396;2023-02-01T06:49:24;33.53;;;6.57;;
46757;SDS011;32509;47.750;-3.396;2023-02-01T06:51:50;31.17;;;8.23;;
46757;SDS011;32509;47.750;-3.396;2023-02-01T06:54:16;33.67;;;11.85;;
46757;SDS011;32509;47.750;-3.396;2023-02-01T06:56:42;43.13;;;14.82;;
46757;SDS011;32509;47.750;-3.396;2023-02-01T06:59:09;33.78;;;10.90;;
46757;SDS011;32509;47.750;-3.396;2023-02-01T07:01:35;25.52;;;9.10;;
46757;SDS011;32509;47.750;-3.396;2023-02-01T07:04:01;29.58;;;11.32;;
46757;SDS011;32509;47.750;-3.396;2023-02-01T07:06:27;27.58;;;9.73;;
46757;SDS011;32509;47.750;-3.396;2023-02-01T07:08:53;38.30;;;15.20;;
46757;SDS011;32509;47.750;-3.396;2023-02-01T07:11:21;36.47;;;14.25;;
46757;SDS011;32509;47.750;-3.396;2023-02-01T07:13:47;34.50;;;11.40;;
46757;SDS011;32509;47.750;-3.396;2023-02-01T07:16:15;51.53;;;17.92;;
46757;SDS011;32509;47.750;-3.396;2023-02-01T07:18:41;59.47;;;18.77;;
46757;SDS011;32509;47.750;-3.396;2023-02-01T07:21:07;87.70;;;26.88;;
46757;SDS011;32509;47.750;-3.396;2023-02-01T07:23:34;160.20;;;46.95;;
46757;SDS011;32509;47.750;-3.396;2023-02-01T07:26:01;66.05;;;20.35;;
46757;SDS011;32509;47.750;-3.396;2023-02-01T07:28:28;57.60;;;18.33;;
46757;SDS011;32509;47.750;-3.396;2023-02-01T07:30:55;38.70;;;13.85;;
46757;SDS011;32509;47.750;-3.396;2023-02-01T07:33:22;62.08;;;20.63;;
46757;SDS011;32509;47.750;-3.396;2023-02-01T07:35:48;57.65;;;23.08;;
46757;SDS011;32509;47.750;-3.396;2023-02-01T07:38:15;48.28;;;16.30;;
46757;SDS011;32509;47.750;-3.396;2023-02-01T07:40:41;75.13;;;27.35;;
46757;SDS011;32509;47.750;-3.396;2023-02-01T07:43:07;87.00;;;36.10;;
46757;SDS011;32509;47.750;-3.396;2023-02-01T07:45:36;54.78;;;19.27;;
46757;SDS011;32509;47.750;-3.396;2023-02-01T07:48:03;58.22;;;21.38;;
46757;SDS011;32509;47.750;-3.396;2023-02-01T07:50:29;62.55;;;23.20;;
46757;SDS011;32509;47.750;-3.396;2023-02-01T07:52:57;51.78;;;19.55;;
46757;SDS011;32509;47.750;-3.396;2023-02-01T07:55:24;63.95;;;23.23;;
46757;SDS011;32509;47.750;-3.396;2023-02-01T07:57:50;38.97;;;15.60;;
46757;SDS011;32509;47.750;-3.396;2023-02-01T08:00:16;75.13;;;29.83;;
46757;SDS011;32509;47.750;-3.396;2023-02-01T08:03:03;92.43;;;33.78;;
46757;SDS011;32509;47.750;-3.396;2023-02-01T08:05:29;88.80;;;31.60;;
46757;SDS011;32509;47.750;-3.396;2023-02-01T08:07:55;61.95;;;23.52;;
46757;SDS011;32509;47.750;-3.396;2023-02-01T08:10:21;64.55;;;22.45;;
46757;SDS011;32509;47.750;-3.396;2023-02-01T08:12:47;67.90;;;22.45;;
46757;SDS011;32509;47.750;-3.396;2023-02-01T08:15:14;59.22;;;23.52;;
46757;SDS011;32509;47.750;-3.396;2023-02-01T08:17:46;52.30;;;18.33;;
46757;SDS011;32509;47.750;-3.396;2023-02-01T08:20:12;37.15;;;15.32;;
46757;SDS011;32509;47.750;-3.396;2023-02-01T08:22:38;40.40;;;15.90;;
46757;SDS011;32509;47.750;-3.396;2023-02-01T08:25:05;36.80;;;13.52;;
46757;SDS011;32509;47.750;-3.396;2023-02-01T08:27:34;30.73;;;11.82;;
46757;SDS011;32509;47.750;-3.396;2023-02-01T08:30:00;27.00;;;10.57;;
46757;SDS011;32509;47.750;-3.396;2023-02-01T08:32:26;28.55;;;9.88;;
46757;SDS011;32509;47.750;-3.396;2023-02-01T08:34:53;32.90;;;10.73;;
46757;SDS011;32509;47.750;-3.396;2023-02-01T08:37:19;32.72;;;8.30;;
46757;SDS011;32509;47.750;-3.396;2023-02-01T08:39:45;22.17;;;7.60;;
46757;SDS011;32509;47.750;-3.396;2023-02-01T08:42:12;22.90;;;7.20;;
46757;SDS011;32509;47.750;-3.396;2023-02-01T08:44:57;24.90;;;6.95;;
46757;SDS011;32509;47.750;-3.396;2023-02-01T08:47:23;23.45;;;7.38;;
46757;SDS011;32509;47.750;-3.396;2023-02-01T08:49:49;23.63;;;6.22;;
46757;SDS011;32509;47.750;-3.396;2023-02-01T08:52:16;16.42;;;4.53;;
46757;SDS011;32509;47.750;-3.396;2023-02-01T08:54:42;20.95;;;5.80;;
46757;SDS011;32509;47.750;-3.396;2023-02-01T08:57:08;14.05;;;5.15;;
46757;SDS011;32509;47.750;-3.396;2023-02-01T08:59:35;23.38;;;5.82;;
46757;SDS011;32509;47.750;-3.396;2023-02-01T09:02:01;18.17;;;5.13;;
46757;SDS011;32509;47.750;-3.396;2023-02-01T09:04:27;26.55;;;6.28;;
46757;SDS011;32509;47.750;-3.396;2023-02-01T09:06:53;20.00;;;6.05;;
46757;SDS011;32509;47.750;-3.396;2023-02-01T09:09:21;19.55;;;4.95;;
46757;SDS011;32509;47.750;-3.396;2023-02-01T09:11:47;15.45;;;4.63;;
46757;SDS011;32509;47.750;-3.396;2023-02-01T09:14:15;20.98;;;5.28;;
46757;SDS011;32509;47.750;-3.396;2023-02-01T09:16:41;17.05;;;5.80;;
46757;SDS011;32509;47.750;-3.396;2023-02-01T09:19:07;20.63;;;4.93;;
46757;SDS011;32509;47.750;-3.396;2023-02-01T09:21:33;16.88;;;4.78;;
46757;SDS011;32509;47.750;-3.396;2023-02-01T09:23:59;13.45;;;4.90;;
46757;SDS011;32509;47.750;-3.396;2023-02-01T09:26:25;18.83;;;5.38;;
46757;SDS011;32509;47.750;-3.396;2023-02-01T09:28:51;20.13;;;4.65;;
46757;SDS011;32509;47.750;-3.396;2023-02-01T09:31:18;26.38;;;6.65;;
46757;SDS011;32509;47.750;-3.396;2023-02-01T09:33:44;13.82;;;3.85;;
46757;SDS011;32509;47.750;-3.396;2023-02-01T09:36:11;24.52;;;5.30;;
46757;SDS011;32509;47.750;-3.396;2023-02-01T09:38:37;19.23;;;4.53;;
46757;SDS011;32509;47.750;-3.396;2023-02-01T09:41:26;14.05;;;3.92;;
46757;SDS011;32509;47.750;-3.396;2023-02-01T09:43:53;19.73;;;4.20;;
46757;SDS011;32509;47.750;-3.396;2023-02-01T09:46:23;13.93;;;4.20;;
46757;SDS011;32509;47.750;-3.396;2023-02-01T09:48:52;19.17;;;4.90;;
46757;SDS011;32509;47.750;-3.396;2023-02-01T09:51:20;28.48;;;5.60;;
46757;SDS011;32509;47.750;-3.396;2023-02-01T09:53:52;18.95;;;4.75;;
46757;SDS011;32509;47.750;-3.396;2023-02-01T09:58:47;19.77;;;5.60;;
46757;SDS011;32509;47.750;-3.396;2023-02-01T10:01:25;17.15;;;4.40;;
46757;SDS011;32509;47.750;-3.396;2023-02-01T10:03:55;18.23;;;6.07;;
46757;SDS011;32509;47.750;-3.396;2023-02-01T10:06:28;16.73;;;4.50;;
46757;SDS011;32509;47.750;-3.396;2023-02-01T10:09:17;20.05;;;4.60;;
46757;SDS011;32509;47.750;-3.396;2023-02-01T10:17:10;15.48;;;4.55;;
46757;SDS011;32509;47.750;-3.396;2023-02-01T10:22:33;17.13;;;5.00;;
46757;SDS011;32509;47.750;-3.396;2023-02-01T10:25:04;16.95;;;4.35;;
46757;SDS011;32509;47.750;-3.396;2023-02-01T10:27:34;18.83;;;5.40;;
46757;SDS011;32509;47.750;-3.396;2023-02-01T10:30:06;22.70;;;4.75;;
46757;SDS011;32509;47.750;-3.396;2023-02-01T10:32:40;15.35;;;4.93;;
46757;SDS011;32509;47.750;-3.396;2023-02-01T10:37:35;18.05;;;4.88;;
46757;SDS011;32509;47.750;-3.396;2023-02-01T10:40:19;14.30;;;3.80;;
46757;SDS011;32509;47.750;-3.396;2023-02-01T10:42:47;18.38;;;5.18;;
46757;SDS011;32509;47.750;-3.396;2023-02-01T10:45:14;19.58;;;5.25;;
46757;SDS011;32509;47.750;-3.396;2023-02-01T10:47:41;19.55;;;6.18;;
46757;SDS011;32509;47.750;-3.396;2023-02-01T10:50:13;15.15;;;4.68;;
46757;SDS011;32509;47.750;-3.396;2023-02-01T10:52:43;17.27;;;5.32;;
46757;SDS011;32509;47.750;-3.396;2023-02-01T10:57:56;21.23;;;5.65;;
46757;SDS011;32509;47.750;-3.396;2023-02-01T11:00:23;11.93;;;4.70;;
46757;SDS011;32509;47.750;-3.396;2023-02-01T11:02:49;23.00;;;5.07;;
46757;SDS011;32509;47.750;-3.396;2023-02-01T11:05:16;18.08;;;4.47;;
46757;SDS011;32509;47.750;-3.396;2023-02-01T11:07:48;21.60;;;5.63;;
46757;SDS011;32509;47.750;-3.396;2023-02-01T11:13:01;13.07;;;3.75;;
46757;SDS011;32509;47.750;-3.396;2023-02-01T11:15:27;12.32;;;4.75;;
46757;SDS011;32509;47.750;-3.396;2023-02-01T11:17:53;19.00;;;4.45;;
46757;SDS011;32509;47.750;-3.396;2023-02-01T11:20:39;15.55;;;4.65;;
46757;SDS011;32509;47.750;-3.396;2023-02-01T11:23:16;20.67;;;6.13;;
46757;SDS011;32509;47.750;-3.396;2023-02-01T11:28:16;18.20;;;5.18;;
46757;SDS011;32509;47.750;-3.396;2023-02-01T11:30:43;19.52;;;4.35;;
46757;SDS011;32509;47.750;-3.396;2023-02-01T11:33:20;15.30;;;4.45;;
46757;SDS011;32509;47.750;-3.396;2023-02-01T11:35:49;23.33;;;4.93;;
46757;SDS011;32509;47.750;-3.396;2023-02-01T11:38:22;14.80;;;4.60;;
46757;SDS011;32509;47.750;-3.396;2023-02-01T11:40:51;12.85;;;3.97;;
46757;SDS011;32509;47.750;-3.396;2023-02-01T11:48:21;19.70;;;3.97;;
46757;SDS011;32509;47.750;-3.396;2023-02-01T11:56:36;22.63;;;4.37;;
46757;SDS011;32509;47.750;-3.396;2023-02-01T12:02:02;19.65;;;4.43;;
46757;SDS011;32509;47.750;-3.396;2023-02-01T12:07:29;19.38;;;5.20;;
46757;SDS011;32509;47.750;-3.396;2023-02-01T12:10:02;21.20;;;4.35;;
46757;SDS011;32509;47.750;-3.396;2023-02-01T12:23:24;16.83;;;4.38;;
46757;SDS011;32509;47.750;-3.396;2023-02-01T12:25:59;12.60;;;4.47;;
46757;SDS011;32509;47.750;-3.396;2023-02-01T12:28:42;18.90;;;5.00;;
46757;SDS011;32509;47.750;-3.396;2023-02-01T12:36:41;16.10;;;3.78;;
46757;SDS011;32509;47.750;-3.396;2023-02-01T12:39:20;12.50;;;3.53;;
46757;SDS011;32509;47.750;-3.396;2023-02-01T12:41:50;17.85;;;4.03;;
46757;SDS011;32509;47.750;-3.396;2023-02-01T12:44:25;21.38;;;5.22;;
46757;SDS011;32509;47.750;-3.396;2023-02-01T12:46:53;17.67;;;3.92;;
46757;SDS011;32509;47.750;-3.396;2023-02-01T12:49:22;19.90;;;4.00;;
46757;SDS011;32509;47.750;-3.396;2023-02-01T12:52:02;18.27;;;5.70;;
46757;SDS011;32509;47.750;-3.396;2023-02-01T12:54:39;10.55;;;3.17;;
46757;SDS011;32509;47.750;-3.396;2023-02-01T12:57:08;10.50;;;3.85;;
46757;SDS011;32509;47.750;-3.396;2023-02-01T12:59:41;7.97;;;2.78;;
46757;SDS011;32509;47.750;-3.396;2023-02-01T13:04:40;11.63;;;3.58;;
46757;SDS011;32509;47.750;-3.396;2023-02-01T13:07:14;22.23;;;4.63;;
46757;SDS011;32509;47.750;-3.396;2023-02-01T13:09:44;13.95;;;3.88;;
46757;SDS011;32509;47.750;-3.396;2023-02-01T13:12:20;11.18;;;3.70;;
46757;SDS011;32509;47.750;-3.396;2023-02-01T13:14:54;14.90;;;4.03;;
46757;SDS011;32509;47.750;-3.396;2023-02-01T13:17:25;13.43;;;4.38;;
46757;SDS011;32509;47.750;-3.396;2023-02-01T13:19:57;11.88;;;3.80;;
46757;SDS011;32509;47.750;-3.396;2023-02-01T13:22:33;14.23;;;3.80;;
46757;SDS011;32509;47.750;-3.396;2023-02-01T13:25:02;16.58;;;4.47;;
46757;SDS011;32509;47.750;-3.396;2023-02-01T13:27:29;13.50;;;3.83;;
46757;SDS011;32509;47.750;-3.396;2023-02-01T13:30:00;11.20;;;3.05;;
46757;SDS011;32509;47.750;-3.396;2023-02-01T13:32:48;14.93;;;4.07;;
46757;SDS011;32509;47.750;-3.396;2023-02-01T13:38:03;13.23;;;5.15;;
46757;SDS011;32509;47.750;-3.396;2023-02-01T13:45:37;8.53;;;3.07;;
46757;SDS011;32509;47.750;-3.396;2023-02-01T13:48:16;22.20;;;4.43;;
46757;SDS011;32509;47.750;-3.396;2023-02-01T13:50:43;14.93;;;3.60;;
46757;SDS011;32509;47.750;-3.396;2023-02-01T13:53:16;10.30;;;3.17;;
46757;SDS011;32509;47.750;-3.396;2023-02-01T13:55:43;14.48;;;4.28;;
46757;SDS011;32509;47.750;-3.396;2023-02-01T13:58:20;22.77;;;4.03;;
46757;SDS011;32509;47.750;-3.396;2023-02-01T14:00:47;16.58;;;4.00;;
46757;SDS011;32509;47.750;-3.396;2023-02-01T14:03:18;17.00;;;3.38;;
46757;SDS011;32509;47.750;-3.396;2023-02-01T14:08:22;10.88;;;3.22;;
46757;SDS011;32509;47.750;-3.396;2023-02-01T14:23:42;17.55;;;3.67;;
46757;SDS011;32509;47.750;-3.396;2023-02-01T14:26:09;17.85;;;3.67;;
46757;SDS011;32509;47.750;-3.396;2023-02-01T14:28:38;20.08;;;4.38;;
46757;SDS011;32509;47.750;-3.396;2023-02-01T14:31:16;17.60;;;4.72;;
46757;SDS011;32509;47.750;-3.396;2023-02-01T14:33:42;18.73;;;3.90;;
46757;SDS011;32509;47.750;-3.396;2023-02-01T14:36:12;12.77;;;3.10;;
46757;SDS011;32509;47.750;-3.396;2023-02-01T14:38:39;17.75;;;3.85;;
46757;SDS011;32509;47.750;-3.396;2023-02-01T14:41:34;15.90;;;4.05;;
46757;SDS011;32509;47.750;-3.396;2023-02-01T14:49:13;13.18;;;4.40;;
46757;SDS011;32509;47.750;-3.396;2023-02-01T14:51:39;11.73;;;3.35;;
46757;SDS011;32509;47.750;-3.396;2023-02-01T14:54:07;16.92;;;3.72;;
46757;SDS011;32509;47.750;-3.396;2023-02-01T14:56:34;12.35;;;3.58;;
46757;SDS011;32509;47.750;-3.396;2023-02-01T14:59:01;12.68;;;3.78;;
46757;SDS011;32509;47.750;-3.396;2023-02-01T15:01:30;9.38;;;3.42;;
46757;SDS011;32509;47.750;-3.396;2023-02-01T15:06:41;15.05;;;3.30;;
46757;SDS011;32509;47.750;-3.396;2023-02-01T15:14:21;15.63;;;4.15;;
46757;SDS011;32509;47.750;-3.396;2023-02-01T15:16:47;17.75;;;3.33;;
46757;SDS011;32509;47.750;-3.396;2023-02-01T15:19:18;17.50;;;4.00;;
46757;SDS011;32509;47.750;-3.396;2023-02-01T15:21:47;13.02;;;3.35;;
46757;SDS011;32509;47.750;-3.396;2023-02-01T15:24:27;13.88;;;3.63;;
46757;SDS011;32509;47.750;-3.396;2023-02-01T15:26:54;15.18;;;3.83;;
46757;SDS011;32509;47.750;-3.396;2023-02-01T15:29:21;9.23;;;3.83;;
46757;SDS011;32509;47.750;-3.396;2023-02-01T15:31:51;15.70;;;3.58;;
46757;SDS011;32509;47.750;-3.396;2023-02-01T15:34:18;17.55;;;4.30;;
46757;SDS011;32509;47.750;-3.396;2023-02-01T15:36:44;15.45;;;3.50;;
46757;SDS011;32509;47.750;-3.396;2023-02-01T15:39:18;9.95;;;3.78;;
46757;SDS011;32509;47.750;-3.396;2023-02-01T15:41:56;13.48;;;4.20;;
46757;SDS011;32509;47.750;-3.396;2023-02-01T15:44:39;12.07;;;2.90;;
46757;SDS011;32509;47.750;-3.396;2023-02-01T15:47:08;9.00;;;3.30;;
46757;SDS011;32509;47.750;-3.396;2023-02-01T15:49:38;12.10;;;3.10;;
46757;SDS011;32509;47.750;-3.396;2023-02-01T15:52:12;10.95;;;3.67;;
46757;SDS011;32509;47.750;-3.396;2023-02-01T15:54:43;9.32;;;3.30;;
46757;SDS011;32509;47.750;-3.396;2023-02-01T15:57:11;12.75;;;3.72;;
46757;SDS011;32509;47.750;-3.396;2023-02-01T15:59:44;7.68;;;3.33;;
46757;SDS011;32509;47.750;-3.396;2023-02-01T16:02:33;10.18;;;3.55;;
46757;SDS011;32509;47.750;-3.396;2023-02-01T16:04:59;16.17;;;3.97;;
46757;SDS011;32509;47.750;-3.396;2023-02-01T16:07:27;12.10;;;3.83;;
46757;SDS011;32509;47.750;-3.396;2023-02-01T16:09:54;11.07;;;3.53;;
46757;SDS011;32509;47.750;-3.396;2023-02-01T16:14:50;11.85;;;4.20;;
46757;SDS011;32509;47.750;-3.396;2023-02-01T16:17:16;13.38;;;2.92;;
46757;SDS011;32509;47.750;-3.396;2023-02-01T16:19:42;12.18;;;3.45;;
46757;SDS011;32509;47.750;-3.396;2023-02-01T16:22:09;9.77;;;2.90;;
46757;SDS011;32509;47.750;-3.396;2023-02-01T16:24:35;16.95;;;3.80;;
46757;SDS011;32509;47.750;-3.396;2023-02-01T16:27:01;11.45;;;3.67;;
46757;SDS011;32509;47.750;-3.396;2023-02-01T16:29:28;9.15;;;3.70;;
46757;SDS011;32509;47.750;-3.396;2023-02-01T16:31:54;17.65;;;3.92;;
46757;SDS011;32509;47.750;-3.396;2023-02-01T16:34:20;12.40;;;3.55;;
46757;SDS011;32509;47.750;-3.396;2023-02-01T16:36:49;11.20;;;3.88;;
46757;SDS011;32509;47.750;-3.396;2023-02-01T16:39:17;13.27;;;3.60;;
46757;SDS011;32509;47.750;-3.396;2023-02-01T16:41:43;9.80;;;3.53;;
46757;SDS011;32509;47.750;-3.396;2023-02-01T16:44:13;18.00;;;4.75;;
46757;SDS011;32509;47.750;-3.396;2023-02-01T16:46:39;16.83;;;5.15;;
46757;SDS011;32509;47.750;-3.396;2023-02-01T16:49:08;19.17;;;5.68;;
46757;SDS011;32509;47.750;-3.396;2023-02-01T16:51:40;14.82;;;3.83;;
46757;SDS011;32509;47.750;-3.396;2023-02-01T16:54:07;14.02;;;4.72;;